sensor_id;sensor_type;location;lat;lon;timestamp;pressure;altitude;pressure_sealevel;temperature;humidity
34241;BME280;20503;50.200;19.508;2023-10-09T00:00:26;102111.50;;;5.56;58.90
34241;BME280;20503;50.200;19.508;2023-10-09T00:02:10;102115.36;;;5.49;58.79
34241;BME280;20503;50.200;19.508;2023-10-09T00:03:16;102112.95;;;5.43;58.85
34241;BME280;20503;50.200;19.508;2023-10-09T00:04:21;102117.48;;;5.41;58.28
34241;BME280;20503;50.200;19.508;2023-10-09T00:05:25;102116.85;;;5.34;58.57
34241;BME280;20503;50.200;19.508;2023-10-09T00:06:39;102121.02;;;5.41;58.33
34241;BME280;20503;50.200;19.508;2023-10-09T00:07:46;102124.59;;;5.20;59.28
34241;BME280;20503;50.200;19.508;2023-10-09T00:08:50;102120.02;;;5.22;58.67
34241;BME280;20503;50.200;19.508;2023-10-09T00:09:58;102116.10;;;5.09;59.05
34241;BME280;20503;50.200;19.508;2023-10-09T00:11:02;102117.42;;;5.20;59.95
34241;BME280;20503;50.200;19.508;2023-10-09T00:12:21;102113.12;;;5.16;59.61
34241;BME280;20503;50.200;19.508;2023-10-09T00:13:30;102113.19;;;5.15;60.54
34241;BME280;20503;50.200;19.508;2023-10-09T00:14:34;102103.64;;;5.30;60.28
34241;BME280;20503;50.200;19.508;2023-10-09T00:15:42;102123.32;;;5.51;59.85
34241;BME280;20503;50.200;19.508;2023-10-09T00:16:50;102128.01;;;5.45;59.78
34241;BME280;20503;50.200;19.508;2023-10-09T00:18:04;102127.77;;;5.52;58.77
34241;BME280;20503;50.200;19.508;2023-10-09T00:19:08;102128.14;;;5.64;58.48
34241;BME280;20503;50.200;19.508;2023-10-09T00:20:21;102125.83;;;5.33;58.11
34241;BME280;20503;50.200;19.508;2023-10-09T00:21:31;102122.36;;;5.31;58.01
34241;BME280;20503;50.200;19.508;2023-10-09T00:22:40;102112.88;;;5.23;57.83
34241;BME280;20503;50.200;19.508;2023-10-09T00:23:49;102108.63;;;5.17;58.91
34241;BME280;20503;50.200;19.508;2023-10-09T00:25:00;102101.91;;;5.07;58.80
34241;BME280;20503;50.200;19.508;2023-10-09T00:26:15;102104.51;;;4.63;61.51
34241;BME280;20503;50.200;19.508;2023-10-09T00:27:24;102094.87;;;4.57;62.00
34241;BME280;20503;50.200;19.508;2023-10-09T00:28:32;102088.14;;;4.47;64.44
34241;BME280;20503;50.200;19.508;2023-10-09T00:29:37;102093.43;;;4.72;64.28
34241;BME280;20503;50.200;19.508;2023-10-09T00:30:46;102095.16;;;4.73;63.47
34241;BME280;20503;50.200;19.508;2023-10-09T00:31:51;102104.36;;;4.66;64.23
34241;BME280;20503;50.200;19.508;2023-10-09T00:33:03;102100.81;;;4.89;63.66
34241;BME280;20503;50.200;19.508;2023-10-09T00:34:26;102102.40;;;5.16;63.48
34241;BME280;20503;50.200;19.508;2023-10-09T00:35:28;102094.81;;;5.28;62.55
34241;BME280;20503;50.200;19.508;2023-10-09T00:37:03;102096.36;;;5.11;63.52
34241;BME280;20503;50.200;19.508;2023-10-09T00:38:07;102076.10;;;5.04;66.09
34241;BME280;20503;50.200;19.508;2023-10-09T00:39:22;102064.07;;;5.36;65.80
34241;BME280;20503;50.200;19.508;2023-10-09T00:40:37;102072.34;;;5.52;65.86
34241;BME280;20503;50.200;19.508;2023-10-09T00:41:51;102067.01;;;5.73;65.62
34241;BME280;20503;50.200;19.508;2023-10-09T00:42:56;102071.21;;;6.00;64.39
34241;BME280;20503;50.200;19.508;2023-10-09T00:44:01;102060.51;;;6.19;63.24
34241;BME280;20503;50.200;19.508;2023-10-09T00:45:09;102061.45;;;6.18;64.55
34241;BME280;20503;50.200;19.508;2023-10-09T00:46:23;102052.27;;;6.24;63.62
34241;BME280;20503;50.200;19.508;2023-10-09T00:47:28;102053.72;;;6.31;63.41
34241;BME280;20503;50.200;19.508;2023-10-09T00:48:36;102049.73;;;6.21;63.76
34241;BME280;20503;50.200;19.508;2023-10-09T00:49:43;102037.33;;;5.98;64.39
34241;BME280;20503;50.200;19.508;2023-10-09T00:50:47;102042.03;;;5.92;64.05
34241;BME280;20503;50.200;19.508;2023-10-09T00:51:56;102024.31;;;6.09;64.42
34241;BME280;20503;50.200;19.508;2023-10-09T00:53:00;102020.25;;;6.19;64.71
34241;BME280;20503;50.200;19.508;2023-10-09T00:54:11;102014.19;;;6.15;64.46
34241;BME280;20503;50.200;19.508;2023-10-09T00:55:21;102006.60;;;6.44;63.09
34241;BME280;20503;50.200;19.508;2023-10-09T00:56:36;102010.44;;;6.57;62.49
34241;BME280;20503;50.200;19.508;2023-10-09T00:57:46;102006.96;;;6.55;62.34
34241;BME280;20503;50.200;19.508;2023-10-09T00:59:00;102004.84;;;6.62;62.04
34241;BME280;20503;50.200;19.508;2023-10-09T01:00:16;101996.33;;;6.71;62.36
34241;BME280;20503;50.200;19.508;2023-10-09T01:01:31;101992.04;;;6.86;61.35
34241;BME280;20503;50.200;19.508;2023-10-09T01:02:42;102002.18;;;6.98;61.12
34241;BME280;20503;50.200;19.508;2023-10-09T01:03:46;101996.78;;;7.17;60.03
34241;BME280;20503;50.200;19.508;2023-10-09T01:05:03;102005.94;;;7.13;58.87
34241;BME280;20503;50.200;19.508;2023-10-09T01:06:20;102002.78;;;6.86;59.31
34241;BME280;20503;50.200;19.508;2023-10-09T01:07:34;101996.50;;;6.68;60.20
34241;BME280;20503;50.200;19.508;2023-10-09T01:08:39;101994.74;;;6.29;61.87
34241;BME280;20503;50.200;19.508;2023-10-09T01:09:51;101982.90;;;6.14;62.37
34241;BME280;20503;50.200;19.508;2023-10-09T01:10:58;101974.94;;;6.13;62.52
34241;BME280;20503;50.200;19.508;2023-10-09T01:12:12;101980.11;;;6.36;63.20
34241;BME280;20503;50.200;19.508;2023-10-09T01:13:23;101980.16;;;6.73;60.79
34241;BME280;20503;50.200;19.508;2023-10-09T01:14:55;101986.98;;;6.42;59.63
34241;BME280;20503;50.200;19.508;2023-10-09T01:16:05;101988.35;;;6.51;58.91
34241;BME280;20503;50.200;19.508;2023-10-09T01:17:06;101985.54;;;6.54;58.87
34241;BME280;20503;50.200;19.508;2023-10-09T01:18:15;101995.41;;;6.53;58.29
34241;BME280;20503;50.200;19.508;2023-10-09T01:19:17;102003.47;;;6.53;58.59
34241;BME280;20503;50.200;19.508;2023-10-09T01:20:24;101995.66;;;6.09;58.63
34241;BME280;20503;50.200;19.508;2023-10-09T01:21:39;101995.49;;;5.93;58.37
34241;BME280;20503;50.200;19.508;2023-10-09T01:22:43;101990.03;;;5.75;59.28
34241;BME280;20503;50.200;19.508;2023-10-09T01:23:49;101988.26;;;5.96;59.42
34241;BME280;20503;50.200;19.508;2023-10-09T01:25:16;101999.42;;;5.85;59.02
34241;BME280;20503;50.200;19.508;2023-10-09T01:26:22;102003.59;;;5.72;58.13
34241;BME280;20503;50.200;19.508;2023-10-09T01:27:24;102007.94;;;5.74;59.22
34241;BME280;20503;50.200;19.508;2023-10-09T01:28:33;102007.68;;;5.60;58.97
34241;BME280;20503;50.200;19.508;2023-10-09T01:29:37;101999.88;;;5.74;58.51
34241;BME280;20503;50.200;19.508;2023-10-09T01:30:44;102003.30;;;5.37;58.69
34241;BME280;20503;50.200;19.508;2023-10-09T01:31:51;101998.07;;;5.54;58.61
34241;BME280;20503;50.200;19.508;2023-10-09T01:32:58;102005.01;;;5.60;57.87
34241;BME280;20503;50.200;19.508;2023-10-09T01:34:10;102003.98;;;5.62;58.01
34241;BME280;20503;50.200;19.508;2023-10-09T01:35:16;102007.06;;;5.53;58.38
34241;BME280;20503;50.200;19.508;2023-10-09T01:36:28;102002.70;;;5.51;58.71
34241;BME280;20503;50.200;19.508;2023-10-09T01:37:38;102001.71;;;5.53;59.36
34241;BME280;20503;50.200;19.508;2023-10-09T01:38:40;101988.50;;;5.49;60.30
34241;BME280;20503;50.200;19.508;2023-10-09T01:39:54;101988.50;;;5.49;59.79
34241;BME280;20503;50.200;19.508;2023-10-09T01:41:00;101986.48;;;5.54;59.98
34241;BME280;20503;50.200;19.508;2023-10-09T01:42:10;101993.94;;;5.47;59.24
34241;BME280;20503;50.200;19.508;2023-10-09T01:43:24;102001.98;;;5.67;58.36
34241;BME280;20503;50.200;19.508;2023-10-09T01:44:28;102009.10;;;5.26;59.05
34241;BME280;20503;50.200;19.508;2023-10-09T01:45:37;102015.80;;;5.16;58.93
34241;BME280;20503;50.200;19.508;2023-10-09T01:46:48;102006.66;;;4.54;61.02
34241;BME280;20503;50.200;19.508;2023-10-09T01:48:16;102026.91;;;4.61;60.46
34241;BME280;20503;50.200;19.508;2023-10-09T01:49:26;102029.20;;;4.49;60.72
34241;BME280;20503;50.200;19.508;2023-10-09T01:50:37;102016.24;;;4.83;59.98
34241;BME280;20503;50.200;19.508;2023-10-09T01:51:44;102009.18;;;4.59;60.80
34241;BME280;20503;50.200;19.508;2023-10-09T01:52:49;102007.19;;;4.64;61.51
34241;BME280;20503;50.200;19.508;2023-10-09T01:53:53;102004.84;;;5.00;61.08
34241;BME280;20503;50.200;19.508;2023-10-09T01:54:59;101999.13;;;5.30;60.85
34241;BME280;20503;50.200;19.508;2023-10-09T01:56:12;102005.20;;;5.13;60.28
34241;BME280;20503;50.200;19.508;2023-10-09T01:57:19;102008.23;;;5.26;63.11
34241;BME280;20503;50.200;19.508;2023-10-09T01:58:25;101989.48;;;5.26;63.21
34241;BME280;20503;50.200;19.508;2023-10-09T01:59:33;101992.34;;;5.43;62.82
34241;BME280;20503;50.200;19.508;2023-10-09T02:00:39;101995.26;;;5.37;63.92
34241;BME280;20503;50.200;19.508;2023-10-09T02:01:49;101997.16;;;5.76;62.40
34241;BME280;20503;50.200;19.508;2023-10-09T02:03:00;101981.43;;;5.87;63.46
34241;BME280;20503;50.200;19.508;2023-10-09T02:04:14;102003.37;;;6.17;61.85
34241;BME280;20503;50.200;19.508;2023-10-09T02:05:22;101990.33;;;6.28;60.88
34241;BME280;20503;50.200;19.508;2023-10-09T02:06:27;101993.40;;;6.39;60.52
34241;BME280;20503;50.200;19.508;2023-10-09T02:07:35;101981.16;;;6.13;61.84
34241;BME280;20503;50.200;19.508;2023-10-09T02:08:48;101985.74;;;6.30;63.88
34241;BME280;20503;50.200;19.508;2023-10-09T02:09:55;101974.43;;;6.42;64.81
34241;BME280;20503;50.200;19.508;2023-10-09T02:10:58;101968.78;;;6.67;64.97
34241;BME280;20503;50.200;19.508;2023-10-09T02:12:04;101969.96;;;6.79;62.73
34241;BME280;20503;50.200;19.508;2023-10-09T02:13:09;101969.30;;;6.93;63.56
34241;BME280;20503;50.200;19.508;2023-10-09T02:14:24;101965.68;;;7.11;62.85
34241;BME280;20503;50.200;19.508;2023-10-09T02:15:30;101965.41;;;6.81;63.84
34241;BME280;20503;50.200;19.508;2023-10-09T02:16:47;101958.67;;;7.26;62.78
34241;BME280;20503;50.200;19.508;2023-10-09T02:18:02;101954.87;;;6.96;62.76
34241;BME280;20503;50.200;19.508;2023-10-09T02:19:15;101954.39;;;7.05;63.03
34241;BME280;20503;50.200;19.508;2023-10-09T02:20:30;101943.25;;;7.30;62.07
34241;BME280;20503;50.200;19.508;2023-10-09T02:21:32;101939.84;;;7.43;59.94
34241;BME280;20503;50.200;19.508;2023-10-09T02:22:43;101939.91;;;7.59;59.55
34241;BME280;20503;50.200;19.508;2023-10-09T02:23:56;101936.54;;;7.56;59.59
34241;BME280;20503;50.200;19.508;2023-10-09T02:24:59;101930.59;;;7.49;59.23
34241;BME280;20503;50.200;19.508;2023-10-09T02:26:06;101947.52;;;7.51;59.87
34241;BME280;20503;50.200;19.508;2023-10-09T02:27:17;101948.16;;;7.56;59.03
34241;BME280;20503;50.200;19.508;2023-10-09T02:28:35;101938.91;;;7.45;57.77
34241;BME280;20503;50.200;19.508;2023-10-09T02:29:39;101934.24;;;7.13;60.77
34241;BME280;20503;50.200;19.508;2023-10-09T02:30:46;101926.17;;;7.13;62.02
34241;BME280;20503;50.200;19.508;2023-10-09T02:31:52;101916.92;;;7.02;62.60
34241;BME280;20503;50.200;19.508;2023-10-09T02:33:04;101918.83;;;7.00;62.17
34241;BME280;20503;50.200;19.508;2023-10-09T02:34:10;101920.73;;;7.32;62.05
34241;BME280;20503;50.200;19.508;2023-10-09T02:35:16;101924.73;;;7.58;61.02
34241;BME280;20503;50.200;19.508;2023-10-09T02:36:31;101930.71;;;7.81;60.34
34241;BME280;20503;50.200;19.508;2023-10-09T02:37:41;101938.73;;;7.98;60.00
34241;BME280;20503;50.200;19.508;2023-10-09T02:38:43;101929.89;;;7.96;59.76
34241;BME280;20503;50.200;19.508;2023-10-09T02:39:46;101930.79;;;8.12;58.86
34241;BME280;20503;50.200;19.508;2023-10-09T02:41:03;101946.84;;;8.14;58.50
34241;BME280;20503;50.200;19.508;2023-10-09T02:42:18;101936.33;;;8.09;58.17
34241;BME280;20503;50.200;19.508;2023-10-09T02:43:35;101940.66;;;8.12;58.56
34241;BME280;20503;50.200;19.508;2023-10-09T02:45:05;101950.12;;;8.03;58.33
34241;BME280;20503;50.200;19.508;2023-10-09T02:46:15;101947.26;;;8.06;58.69
34241;BME280;20503;50.200;19.508;2023-10-09T02:47:49;101952.54;;;7.92;59.96
34241;BME280;20503;50.200;19.508;2023-10-09T02:48:57;101922.34;;;8.03;59.74
34241;BME280;20503;50.200;19.508;2023-10-09T02:50:01;101937.12;;;7.78;60.47
34241;BME280;20503;50.200;19.508;2023-10-09T02:51:12;101933.00;;;7.71;59.68
34241;BME280;20503;50.200;19.508;2023-10-09T02:52:23;101935.39;;;7.77;59.74
34241;BME280;20503;50.200;19.508;2023-10-09T02:53:35;101930.11;;;7.58;60.00
34241;BME280;20503;50.200;19.508;2023-10-09T02:54:40;101924.67;;;7.60;60.54
34241;BME280;20503;50.200;19.508;2023-10-09T02:55:58;101935.95;;;7.66;60.99
34241;BME280;20503;50.200;19.508;2023-10-09T02:57:23;101923.01;;;7.57;61.74
34241;BME280;20503;50.200;19.508;2023-10-09T02:58:30;101909.95;;;7.50;60.57
34241;BME280;20503;50.200;19.508;2023-10-09T02:59:57;101919.85;;;6.97;63.87
34241;BME280;20503;50.200;19.508;2023-10-09T03:01:09;101915.66;;;7.09;63.39
34241;BME280;20503;50.200;19.508;2023-10-09T03:02:12;101917.81;;;7.20;63.61
34241;BME280;20503;50.200;19.508;2023-10-09T03:03:32;101934.22;;;7.65;62.45
34241;BME280;20503;50.200;19.508;2023-10-09T03:04:40;101927.66;;;7.87;61.57
34241;BME280;20503;50.200;19.508;2023-10-09T03:06:04;101937.20;;;8.10;60.44
34241;BME280;20503;50.200;19.508;2023-10-09T03:07:13;101925.15;;;8.17;59.86
34241;BME280;20503;50.200;19.508;2023-10-09T03:08:15;101927.46;;;8.07;59.33
34241;BME280;20503;50.200;19.508;2023-10-09T03:09:23;101931.63;;;7.97;59.06
34241;BME280;20503;50.200;19.508;2023-10-09T03:10:31;101931.52;;;7.99;60.15
34241;BME280;20503;50.200;19.508;2023-10-09T03:11:37;101927.71;;;8.03;59.79
34241;BME280;20503;50.200;19.508;2023-10-09T03:12:41;101927.00;;;7.99;60.04
34241;BME280;20503;50.200;19.508;2023-10-09T03:13:45;101929.09;;;7.94;60.45
34241;BME280;20503;50.200;19.508;2023-10-09T03:14:47;101918.99;;;7.82;60.68
34241;BME280;20503;50.200;19.508;2023-10-09T03:15:49;101927.05;;;7.49;61.34
34241;BME280;20503;50.200;19.508;2023-10-09T03:16:54;101929.91;;;7.79;60.68
34241;BME280;20503;50.200;19.508;2023-10-09T03:17:59;101926.66;;;7.89;59.98
34241;BME280;20503;50.200;19.508;2023-10-09T03:19:06;101926.08;;;8.00;59.15
34241;BME280;20503;50.200;19.508;2023-10-09T03:20:13;101924.73;;;8.25;59.14
34241;BME280;20503;50.200;19.508;2023-10-09T03:21:19;101934.36;;;8.29;58.98
34241;BME280;20503;50.200;19.508;2023-10-09T03:22:23;101930.75;;;8.46;58.07
34241;BME280;20503;50.200;19.508;2023-10-09T03:23:26;101924.40;;;8.47;58.15
34241;BME280;20503;50.200;19.508;2023-10-09T03:24:28;101919.68;;;8.34;59.30
34241;BME280;20503;50.200;19.508;2023-10-09T03:25:33;101916.70;;;8.23;58.33
34241;BME280;20503;50.200;19.508;2023-10-09T03:26:38;101924.18;;;8.18;58.98
34241;BME280;20503;50.200;19.508;2023-10-09T03:27:52;101927.47;;;8.23;58.33
34241;BME280;20503;50.200;19.508;2023-10-09T03:28:58;101917.06;;;8.17;58.98
34241;BME280;20503;50.200;19.508;2023-10-09T03:30:09;101920.47;;;8.21;59.55
34241;BME280;20503;50.200;19.508;2023-10-09T03:31:32;101923.45;;;7.99;58.63
34241;BME280;20503;50.200;19.508;2023-10-09T03:32:36;101906.45;;;7.98;58.42
34241;BME280;20503;50.200;19.508;2023-10-09T03:33:49;101908.36;;;7.96;58.98
34241;BME280;20503;50.200;19.508;2023-10-09T03:34:54;101896.91;;;8.08;58.03
34241;BME280;20503;50.200;19.508;2023-10-09T03:36:02;101894.99;;;8.10;58.66
34241;BME280;20503;50.200;19.508;2023-10-09T03:37:12;101892.89;;;8.00;59.08
34241;BME280;20503;50.200;19.508;2023-10-09T03:38:27;101894.39;;;8.05;58.29
34241;BME280;20503;50.200;19.508;2023-10-09T03:39:36;101917.56;;;8.24;58.71
34241;BME280;20503;50.200;19.508;2023-10-09T03:40:50;101911.09;;;8.59;57.19
34241;BME280;20503;50.200;19.508;2023-10-09T03:41:55;101898.84;;;8.70;57.47
34241;BME280;20503;50.200;19.508;2023-10-09T03:43:00;101905.01;;;8.56;56.04
34241;BME280;20503;50.200;19.508;2023-10-09T03:44:05;101904.48;;;8.18;57.16
34241;BME280;20503;50.200;19.508;2023-10-09T03:45:09;101893.27;;;8.09;57.35
34241;BME280;20503;50.200;19.508;2023-10-09T03:46:25;101888.84;;;8.08;57.74
34241;BME280;20503;50.200;19.508;2023-10-09T03:47:47;101894.90;;;8.12;58.14
34241;BME280;20503;50.200;19.508;2023-10-09T03:48:51;101870.66;;;8.12;57.98
34241;BME280;20503;50.200;19.508;2023-10-09T03:49:57;101876.26;;;8.25;58.40
34241;BME280;20503;50.200;19.508;2023-10-09T03:51:30;101864.17;;;8.00;58.74
34241;BME280;20503;50.200;19.508;2023-10-09T03:52:34;101859.38;;;7.89;58.94
34241;BME280;20503;50.200;19.508;2023-10-09T03:53:37;101853.64;;;7.96;59.29
34241;BME280;20503;50.200;19.508;2023-10-09T03:54:41;101851.58;;;8.01;59.41
34241;BME280;20503;50.200;19.508;2023-10-09T03:55:48;101842.88;;;7.96;59.48
34241;BME280;20503;50.200;19.508;2023-10-09T03:56:52;101848.10;;;8.14;58.56
34241;BME280;20503;50.200;19.508;2023-10-09T03:58:20;101853.22;;;8.19;58.24
34241;BME280;20503;50.200;19.508;2023-10-09T03:59:24;101852.19;;;8.22;57.40
34241;BME280;20503;50.200;19.508;2023-10-09T04:01:10;101856.18;;;8.30;57.56
34241;BME280;20503;50.200;19.508;2023-10-09T04:02:25;101852.25;;;8.36;56.96
34241;BME280;20503;50.200;19.508;2023-10-09T04:03:48;101862.98;;;8.53;56.69
34241;BME280;20503;50.200;19.508;2023-10-09T04:05:16;101863.03;;;8.68;56.35
34241;BME280;20503;50.200;19.508;2023-10-09T04:06:20;101857.16;;;8.61;55.93
34241;BME280;20503;50.200;19.508;2023-10-09T04:07:23;101862.95;;;8.69;55.65
34241;BME280;20503;50.200;19.508;2023-10-09T04:08:27;101863.65;;;8.73;55.63
34241;BME280;20503;50.200;19.508;2023-10-09T04:09:34;101863.62;;;8.88;55.11
34241;BME280;20503;50.200;19.508;2023-10-09T04:10:49;101856.97;;;8.94;54.24
34241;BME280;20503;50.200;19.508;2023-10-09T04:11:55;101854.59;;;9.04;55.03
34241;BME280;20503;50.200;19.508;2023-10-09T04:13:10;101851.76;;;8.91;54.65
34241;BME280;20503;50.200;19.508;2023-10-09T04:14:21;101850.72;;;8.94;54.94
34241;BME280;20503;50.200;19.508;2023-10-09T04:15:32;101835.41;;;8.94;55.52
34241;BME280;20503;50.200;19.508;2023-10-09T04:16:37;101848.34;;;8.73;56.21
34241;BME280;20503;50.200;19.508;2023-10-09T04:17:50;101838.32;;;8.75;56.56
34241;BME280;20503;50.200;19.508;2023-10-09T04:18:55;101837.07;;;8.51;57.58
34241;BME280;20503;50.200;19.508;2023-10-09T04:20:27;101849.96;;;8.46;57.41
34241;BME280;20503;50.200;19.508;2023-10-09T04:21:41;101837.63;;;8.42;56.25
34241;BME280;20503;50.200;19.508;2023-10-09T04:22:43;101851.35;;;8.37;57.27
34241;BME280;20503;50.200;19.508;2023-10-09T04:23:54;101844.56;;;8.46;57.46
34241;BME280;20503;50.200;19.508;2023-10-09T04:25:09;101840.38;;;8.40;57.06
34241;BME280;20503;50.200;19.508;2023-10-09T04:26:21;101833.52;;;8.50;56.82
34241;BME280;20503;50.200;19.508;2023-10-09T04:27:26;101822.89;;;8.63;55.79
34241;BME280;20503;50.200;19.508;2023-10-09T04:28:37;101826.74;;;8.43;56.58
34241;BME280;20503;50.200;19.508;2023-10-09T04:29:44;101812.98;;;8.63;56.10
34241;BME280;20503;50.200;19.508;2023-10-09T04:30:51;101812.46;;;8.73;56.33
34241;BME280;20503;50.200;19.508;2023-10-09T04:32:01;101802.89;;;8.67;55.68
34241;BME280;20503;50.200;19.508;2023-10-09T04:33:10;101805.45;;;8.54;56.03
34241;BME280;20503;50.200;19.508;2023-10-09T04:34:25;101804.92;;;8.32;56.44
34241;BME280;20503;50.200;19.508;2023-10-09T04:35:35;101810.87;;;8.38;56.06
34241;BME280;20503;50.200;19.508;2023-10-09T04:36:48;101812.91;;;8.65;56.38
34241;BME280;20503;50.200;19.508;2023-10-09T04:38:04;101806.79;;;8.77;55.66
34241;BME280;20503;50.200;19.508;2023-10-09T04:39:08;101805.66;;;8.96;55.47
34241;BME280;20503;50.200;19.508;2023-10-09T04:40:22;101797.62;;;9.10;55.61
34241;BME280;20503;50.200;19.508;2023-10-09T04:41:38;101807.35;;;9.27;55.88
34241;BME280;20503;50.200;19.508;2023-10-09T04:42:55;101804.37;;;9.17;56.50
34241;BME280;20503;50.200;19.508;2023-10-09T04:44:01;101804.34;;;9.03;57.36
34241;BME280;20503;50.200;19.508;2023-10-09T04:45:15;101803.24;;;8.91;57.53
34241;BME280;20503;50.200;19.508;2023-10-09T04:46:27;101794.48;;;8.87;59.61
34241;BME280;20503;50.200;19.508;2023-10-09T04:47:35;101799.00;;;8.87;58.08
34241;BME280;20503;50.200;19.508;2023-10-09T04:48:37;101800.20;;;8.97;58.27
34241;BME280;20503;50.200;19.508;2023-10-09T04:49:46;101798.18;;;9.01;58.32
34241;BME280;20503;50.200;19.508;2023-10-09T04:51:02;101795.63;;;8.83;58.22
34241;BME280;20503;50.200;19.508;2023-10-09T04:52:17;101786.65;;;8.69;57.42
34241;BME280;20503;50.200;19.508;2023-10-09T04:53:31;101788.05;;;8.60;57.35
34241;BME280;20503;50.200;19.508;2023-10-09T04:54:43;101788.42;;;8.54;56.97
34241;BME280;20503;50.200;19.508;2023-10-09T04:55:57;101779.14;;;8.44;58.13
34241;BME280;20503;50.200;19.508;2023-10-09T04:57:07;101775.23;;;8.33;58.51
34241;BME280;20503;50.200;19.508;2023-10-09T04:58:18;101779.13;;;8.28;57.58
34241;BME280;20503;50.200;19.508;2023-10-09T04:59:29;101777.40;;;8.27;57.28
34241;BME280;20503;50.200;19.508;2023-10-09T05:00:32;101774.03;;;8.39;57.00
34241;BME280;20503;50.200;19.508;2023-10-09T05:01:48;101771.25;;;8.71;55.83
34241;BME280;20503;50.200;19.508;2023-10-09T05:03:02;101768.50;;;8.86;56.04
34241;BME280;20503;50.200;19.508;2023-10-09T05:04:18;101775.72;;;9.00;56.36
34241;BME280;20503;50.200;19.508;2023-10-09T05:05:32;101767.12;;;8.79;56.56
34241;BME280;20503;50.200;19.508;2023-10-09T05:07:01;101772.16;;;8.55;58.43
34241;BME280;20503;50.200;19.508;2023-10-09T05:08:34;101774.40;;;8.63;58.95
34241;BME280;20503;50.200;19.508;2023-10-09T05:09:46;101763.55;;;8.64;58.34
34241;BME280;20503;50.200;19.508;2023-10-09T05:11:02;101764.30;;;8.67;58.13
34241;BME280;20503;50.200;19.508;2023-10-09T05:12:13;101762.76;;;8.62;58.81
34241;BME280;20503;50.200;19.508;2023-10-09T05:13:17;101754.55;;;8.34;58.93
34241;BME280;20503;50.200;19.508;2023-10-09T05:14:29;101752.13;;;8.45;58.64
34241;BME280;20503;50.200;19.508;2023-10-09T05:15:43;101759.80;;;8.21;58.62
34241;BME280;20503;50.200;19.508;2023-10-09T05:16:53;101753.45;;;8.38;58.53
34241;BME280;20503;50.200;19.508;2023-10-09T05:18:05;101756.73;;;8.27;59.18
34241;BME280;20503;50.200;19.508;2023-10-09T05:19:10;101756.55;;;8.30;57.50
34241;BME280;20503;50.200;19.508;2023-10-09T05:20:25;101758.28;;;8.31;57.56
34241;BME280;20503;50.200;19.508;2023-10-09T05:22:00;101747.30;;;8.20;58.04
34241;BME280;20503;50.200;19.508;2023-10-09T05:23:12;101742.37;;;7.97;57.71
34241;BME280;20503;50.200;19.508;2023-10-09T05:24:26;101733.66;;;8.07;58.65
34241;BME280;20503;50.200;19.508;2023-10-09T05:25:35;101730.81;;;7.95;58.08
34241;BME280;20503;50.200;19.508;2023-10-09T05:26:49;101733.22;;;8.15;57.82
34241;BME280;20503;50.200;19.508;2023-10-09T05:27:55;101733.28;;;8.29;57.36
34241;BME280;20503;50.200;19.508;2023-10-09T05:29:07;101735.06;;;8.60;57.15
34241;BME280;20503;50.200;19.508;2023-10-09T05:30:21;101726.30;;;8.57;56.74
34241;BME280;20503;50.200;19.508;2023-10-09T05:31:26;101722.05;;;8.53;57.32
34241;BME280;20503;50.200;19.508;2023-10-09T05:32:59;101713.37;;;8.32;57.62
34241;BME280;20503;50.200;19.508;2023-10-09T05:34:20;101713.74;;;8.42;57.35
34241;BME280;20503;50.200;19.508;2023-10-09T05:35:25;101709.62;;;8.50;56.50
34241;BME280;20503;50.200;19.508;2023-10-09T05:36:40;101709.27;;;8.56;57.23
34241;BME280;20503;50.200;19.508;2023-10-09T05:37:49;101704.46;;;8.15;57.94
34241;BME280;20503;50.200;19.508;2023-10-09T05:39:02;101701.16;;;8.26;57.98
34241;BME280;20503;50.200;19.508;2023-10-09T05:40:16;101691.93;;;8.30;57.11
34241;BME280;20503;50.200;19.508;2023-10-09T05:41:28;101684.89;;;8.28;56.74
34241;BME280;20503;50.200;19.508;2023-10-09T05:42:45;101689.06;;;8.33;57.81
34241;BME280;20503;50.200;19.508;2023-10-09T05:43:58;101693.92;;;8.43;57.02
34241;BME280;20503;50.200;19.508;2023-10-09T05:45:17;101695.29;;;8.50;56.54
34241;BME280;20503;50.200;19.508;2023-10-09T05:46:30;101695.52;;;8.75;56.17
34241;BME280;20503;50.200;19.508;2023-10-09T05:47:38;101705.90;;;8.53;56.94
34241;BME280;20503;50.200;19.508;2023-10-09T05:48:46;101699.21;;;8.44;57.52
34241;BME280;20503;50.200;19.508;2023-10-09T05:50:02;101689.16;;;8.62;57.51
34241;BME280;20503;50.200;19.508;2023-10-09T05:51:16;101684.41;;;8.51;57.80
34241;BME280;20503;50.200;19.508;2023-10-09T05:52:39;101699.86;;;8.78;57.00
34241;BME280;20503;50.200;19.508;2023-10-09T05:53:52;101691.30;;;8.85;56.95
34241;BME280;20503;50.200;19.508;2023-10-09T05:55:29;101696.02;;;8.82;56.40
34241;BME280;20503;50.200;19.508;2023-10-09T05:56:44;101697.14;;;8.63;57.21
34241;BME280;20503;50.200;19.508;2023-10-09T05:57:58;101702.00;;;8.43;58.16
34241;BME280;20503;50.200;19.508;2023-10-09T05:59:13;101697.02;;;8.21;58.24
34241;BME280;20503;50.200;19.508;2023-10-09T06:00:27;101700.32;;;8.10;59.63
34241;BME280;20503;50.200;19.508;2023-10-09T06:01:43;101713.19;;;8.51;58.42
34241;BME280;20503;50.200;19.508;2023-10-09T06:02:58;101704.59;;;8.44;57.88
34241;BME280;20503;50.200;19.508;2023-10-09T06:04:13;101714.27;;;8.62;57.75
34241;BME280;20503;50.200;19.508;2023-10-09T06:05:21;101720.16;;;8.83;57.02
34241;BME280;20503;50.200;19.508;2023-10-09T06:06:36;101716.71;;;8.96;56.79
34241;BME280;20503;50.200;19.508;2023-10-09T06:07:46;101724.33;;;8.89;56.39
34241;BME280;20503;50.200;19.508;2023-10-09T06:09:03;101733.97;;;9.22;55.46
34241;BME280;20503;50.200;19.508;2023-10-09T06:10:16;101734.42;;;8.85;56.61
34241;BME280;20503;50.200;19.508;2023-10-09T06:11:31;101741.44;;;8.74;56.54